createdAt,value
2019-05-30T00:00:16.549Z,1005.7
2019-05-30T00:01:07.313Z,1005.7
2019-05-30T00:02:08.009Z,1005.7
2019-05-30T00:03:08.737Z,1005.7
2019-05-30T00:04:09.456Z,1005.7
2019-05-30T00:05:10.124Z,1005.7
2019-05-30T00:06:10.822Z,1005.7
2019-05-30T00:07:11.505Z,1005.7
2019-05-30T00:08:12.215Z,1005.7
2019-05-30T00:09:12.885Z,1005.7
2019-05-30T00:10:13.572Z,1005.7
2019-05-30T00:11:14.261Z,1005.7
2019-05-30T00:12:14.947Z,1005.7
2019-05-30T00:13:15.639Z,1005.7
2019-05-30T00:14:16.344Z,1005.7
2019-05-30T00:15:17.019Z,1005.7
2019-05-30T00:16:17.707Z,1005.6
2019-05-30T00:17:18.366Z,1005.7
2019-05-30T00:18:19.066Z,1005.7
2019-05-30T00:19:19.760Z,1005.6
2019-05-30T00:20:20.437Z,1005.6
2019-05-30T00:21:21.128Z,1005.6
2019-05-30T00:22:21.814Z,1005.6
2019-05-30T00:23:22.499Z,1005.6
2019-05-30T00:24:23.197Z,1005.6
2019-05-30T00:25:23.902Z,1005.6
2019-05-30T00:26:24.578Z,1005.6
2019-05-30T00:27:25.265Z,1005.6
2019-05-30T00:28:25.958Z,1005.6
2019-05-30T00:29:26.651Z,1005.6
2019-05-30T00:30:27.334Z,1005.6
2019-05-30T00:31:28.026Z,1005.7
2019-05-30T00:32:28.716Z,1005.6
2019-05-30T00:33:29.408Z,1005.7
2019-05-30T00:34:30.089Z,1005.7
2019-05-30T00:35:30.772Z,1005.6
2019-05-30T00:36:31.474Z,1005.6
2019-05-30T00:37:32.148Z,1005.6
2019-05-30T00:38:32.841Z,1005.6
2019-05-30T00:39:33.536Z,1005.6
2019-05-30T00:40:34.258Z,1005.6
2019-05-30T00:41:34.891Z,1005.6
2019-05-30T00:42:35.580Z,1005.6
2019-05-30T00:43:36.268Z,1005.5
2019-05-30T00:44:36.957Z,1005.5
2019-05-30T00:45:37.651Z,1005.5
2019-05-30T00:46:38.337Z,1005.5
2019-05-30T00:47:39.022Z,1005.5
2019-05-30T00:48:39.723Z,1005.5
2019-05-30T00:49:40.408Z,1005.4
2019-05-30T00:50:41.104Z,1005.5
2019-05-30T00:51:41.785Z,1005.5
2019-05-30T00:52:42.566Z,1005.5
2019-05-30T00:53:43.154Z,1005.5
2019-05-30T00:54:43.850Z,1005.5
2019-05-30T00:55:44.536Z,1005.5
2019-05-30T00:56:45.220Z,1005.5
2019-05-30T00:57:45.903Z,1005.4
2019-05-30T00:58:46.595Z,1005.5
2019-05-30T00:59:47.289Z,1005.5
2019-05-30T01:00:47.968Z,1005.4
2019-05-30T01:01:48.653Z,1005.5
2019-05-30T01:02:49.371Z,1005.4
2019-05-30T01:03:50.039Z,1005.5
2019-05-30T01:04:50.728Z,1005.4
2019-05-30T01:05:51.414Z,1005.4
2019-05-30T01:06:52.150Z,1005.4
2019-05-30T01:07:52.791Z,1005.4
2019-05-30T01:08:53.486Z,1005.4
2019-05-30T01:09:54.168Z,1005.4
2019-05-30T01:10:54.885Z,1005.4
2019-05-30T01:11:56.918Z,1005.4
2019-05-30T01:12:56.867Z,1005.4
2019-05-30T01:13:57.041Z,1005.4
2019-05-30T01:14:58.882Z,1005.4
2019-05-30T01:15:58.962Z,1005.4
2019-05-30T01:16:59.077Z,1005.4
2019-05-30T01:17:59.654Z,1005.4
2019-05-30T01:19:01.091Z,1005.4
2019-05-30T01:20:01.305Z,1005.4
2019-05-30T01:21:01.741Z,1005.4
2019-05-30T01:22:03.382Z,1005.4
2019-05-30T01:23:03.309Z,1005.4
2019-05-30T01:24:03.781Z,1005.3
2019-05-30T01:25:05.887Z,1005.4
2019-05-30T01:26:05.497Z,1005.3
2019-05-30T01:27:05.837Z,1005.3
2019-05-30T01:28:07.739Z,1005.3
2019-05-30T01:29:07.755Z,1005.4
2019-05-30T01:30:08.495Z,1005.4
2019-05-30T01:31:11.380Z,1005.3
2019-05-30T01:32:09.857Z,1005.4
2019-05-30T01:33:10.541Z,1005.3
2019-05-30T01:34:11.238Z,1005.4
2019-05-30T01:35:11.919Z,1005.3
2019-05-30T01:36:12.607Z,1005.3
2019-05-30T01:37:13.310Z,1005.3
2019-05-30T01:38:14.052Z,1005.4
2019-05-30T01:39:14.704Z,1005.3
2019-05-30T01:40:15.392Z,1005.3
2019-05-30T01:41:17.666Z,1005.3
2019-05-30T01:42:16.761Z,1005.3
2019-05-30T01:43:17.447Z,1005.3
2019-05-30T01:44:18.161Z,1005.3
2019-05-30T01:45:18.832Z,1005.3
2019-05-30T01:46:19.543Z,1005.3
2019-05-30T01:47:20.209Z,1005.3
2019-05-30T01:48:20.899Z,1005.3
2019-05-30T01:49:21.596Z,1005.3
2019-05-30T01:50:22.287Z,1005.3
2019-05-30T01:51:22.976Z,1005.2
2019-05-30T01:52:23.663Z,1005.2
2019-05-30T01:53:24.350Z,1005.2
2019-05-30T01:54:25.040Z,1005.2
2019-05-30T01:55:25.736Z,1005.2
2019-05-30T01:56:26.421Z,1005.2
2019-05-30T01:57:27.114Z,1005.2
2019-05-30T01:58:27.808Z,1005.1
2019-05-30T01:59:28.509Z,1005.1
2019-05-30T02:00:29.200Z,1005.1
2019-05-30T02:01:29.884Z,1005.1
2019-05-30T02:02:30.578Z,1005.1
2019-05-30T02:03:31.261Z,1005.1
2019-05-30T02:04:31.948Z,1005.1
2019-05-30T02:05:32.639Z,1005.0
2019-05-30T02:06:33.334Z,1005.1
2019-05-30T02:07:34.047Z,1005.1
2019-05-30T02:08:35.134Z,1005.1
2019-05-30T02:09:35.709Z,1005.1
2019-05-30T02:10:36.373Z,1005.1
2019-05-30T02:11:37.061Z,1005.1
2019-05-30T02:12:37.750Z,1005.1
2019-05-30T02:13:38.496Z,1005.1
2019-05-30T02:14:39.166Z,1005.1
2019-05-30T02:15:39.862Z,1005.1
2019-05-30T02:16:40.548Z,1005.1
2019-05-30T02:17:41.238Z,1005.1
2019-05-30T02:18:41.929Z,1005.1
2019-05-30T02:19:42.620Z,1005.1
2019-05-30T02:20:43.310Z,1005.1
2019-05-30T02:21:43.996Z,1005.1
2019-05-30T02:22:44.696Z,1005.1
2019-05-30T02:23:45.375Z,1005.1
2019-05-30T02:24:46.079Z,1005.1
2019-05-30T02:25:46.765Z,1005.1
2019-05-30T02:26:47.439Z,1005.1
2019-05-30T02:27:48.127Z,1005.2
2019-05-30T02:28:48.812Z,1005.1
2019-05-30T02:29:49.516Z,1005.1
2019-05-30T02:30:50.193Z,1005.1
2019-05-30T02:31:50.889Z,1005.1
2019-05-30T02:32:51.582Z,1005.1
2019-05-30T02:33:52.271Z,1005.2
2019-05-30T02:34:52.958Z,1005.1
2019-05-30T02:35:53.653Z,1005.1
2019-05-30T02:36:54.336Z,1005.1
2019-05-30T02:37:55.053Z,1005.2
2019-05-30T02:38:55.726Z,1005.2
2019-05-30T02:40:00.200Z,1005.2
2019-05-30T02:40:57.105Z,1005.1
2019-05-30T02:41:57.808Z,1005.2
2019-05-30T02:42:58.499Z,1005.2
2019-05-30T02:44:01.044Z,1005.2
2019-05-30T02:45:01.434Z,1005.2
2019-05-30T02:46:00.971Z,1005.2
2019-05-30T02:47:01.588Z,1005.2
2019-05-30T02:48:03.153Z,1005.2
2019-05-30T02:49:04.430Z,1005.2
2019-05-30T02:50:04.397Z,1005.2
2019-05-30T02:51:05.544Z,1005.1
2019-05-30T02:52:06.344Z,1005.1
2019-05-30T02:53:05.983Z,1005.1
2019-05-30T02:54:07.108Z,1005.1
2019-05-30T02:55:08.608Z,1005.1
2019-05-30T02:56:07.954Z,1005.1
2019-05-30T02:57:10.123Z,1005.1
2019-05-30T02:58:10.561Z,1005.1
2019-05-30T02:59:11.542Z,1005.2
2019-05-30T03:00:16.130Z,1005.1
2019-05-30T03:01:11.931Z,1005.2
2019-05-30T03:02:15.209Z,1005.2
2019-05-30T03:03:14.236Z,1005.2
2019-05-30T03:04:13.050Z,1005.1
2019-05-30T03:05:15.089Z,1005.1
2019-05-30T03:06:14.393Z,1005.1
2019-05-30T03:07:15.002Z,1005.2
2019-05-30T03:08:15.693Z,1005.1
2019-05-30T03:09:16.380Z,1005.2
2019-05-30T03:10:17.077Z,1005.2
2019-05-30T03:11:17.771Z,1005.2
2019-05-30T03:12:18.495Z,1005.2
2019-05-30T03:13:19.168Z,1005.2
2019-05-30T03:14:20.218Z,1005.2
2019-05-30T03:15:20.545Z,1005.2
2019-05-30T03:16:21.236Z,1005.2
2019-05-30T03:17:21.933Z,1005.2
2019-05-30T03:18:22.635Z,1005.2
2019-05-30T03:19:23.317Z,1005.2
2019-05-30T03:20:24.029Z,1005.2
2019-05-30T03:21:24.700Z,1005.2
2019-05-30T03:22:25.391Z,1005.2
2019-05-30T03:23:26.088Z,1005.2
2019-05-30T03:24:26.778Z,1005.2
2019-05-30T03:25:27.477Z,1005.2
2019-05-30T03:26:28.230Z,1005.2
2019-05-30T03:27:28.844Z,1005.2
2019-05-30T03:28:29.544Z,1005.1
2019-05-30T03:29:30.235Z,1005.2
2019-05-30T03:30:30.965Z,1005.2
2019-05-30T03:31:31.622Z,1005.1
2019-05-30T03:33:03.467Z,1005.2
2019-05-30T03:33:40.412Z,1005.2
2019-05-30T03:34:34.661Z,1005.2
2019-05-30T03:35:41.613Z,1005.2
2019-05-30T03:36:36.051Z,1005.2
2019-05-30T03:37:36.750Z,1005.2
2019-05-30T03:38:37.444Z,1005.2
2019-05-30T03:39:38.132Z,1005.2
2019-05-30T03:40:38.840Z,1005.2
2019-05-30T03:41:39.524Z,1005.2
2019-05-30T03:42:40.236Z,1005.2
2019-05-30T03:43:40.918Z,1005.2
2019-05-30T03:44:41.606Z,1005.2
2019-05-30T03:45:42.300Z,1005.2
2019-05-30T03:46:42.999Z,1005.2
2019-05-30T03:47:43.687Z,1005.2
2019-05-30T03:48:44.380Z,1005.2
2019-05-30T03:49:45.080Z,1005.2
2019-05-30T03:50:45.765Z,1005.2
2019-05-30T03:51:46.513Z,1005.2
2019-05-30T03:52:47.158Z,1005.2
2019-05-30T03:53:47.846Z,1005.2
2019-05-30T03:54:48.527Z,1005.3
2019-05-30T03:55:49.226Z,1005.3
2019-05-30T03:56:49.915Z,1005.2
2019-05-30T03:57:50.957Z,1005.3
2019-05-30T03:58:51.587Z,1005.3
2019-05-30T03:59:52.259Z,1005.3
2019-05-30T04:00:52.949Z,1005.3
2019-05-30T04:01:53.641Z,1005.3
2019-05-30T04:02:58.036Z,1005.3
2019-05-30T04:03:55.027Z,1005.3
2019-05-30T04:04:55.687Z,1005.3
2019-05-30T04:05:56.426Z,1005.3
2019-05-30T04:06:57.116Z,1005.3
2019-05-30T04:07:57.823Z,1005.3
2019-05-30T04:08:58.508Z,1005.3
2019-05-30T04:09:59.200Z,1005.2
2019-05-30T04:10:59.925Z,1005.3
2019-05-30T04:12:00.614Z,1005.2
2019-05-30T04:13:01.310Z,1005.3
2019-05-30T04:14:02.022Z,1005.3
2019-05-30T04:15:02.715Z,1005.3
2019-05-30T04:16:03.371Z,1005.3
2019-05-30T04:17:04.033Z,1005.3
2019-05-30T04:18:04.731Z,1005.3
2019-05-30T04:19:05.462Z,1005.3
2019-05-30T04:20:07.100Z,1005.3
2019-05-30T04:21:08.531Z,1005.3
2019-05-30T04:22:09.176Z,1005.3
2019-05-30T04:23:08.668Z,1005.3
2019-05-30T04:24:09.650Z,1005.3
2019-05-30T04:25:10.133Z,1005.3
2019-05-30T04:26:11.520Z,1005.3
2019-05-30T04:27:12.001Z,1005.3
2019-05-30T04:28:12.066Z,1005.3
2019-05-30T04:29:14.069Z,1005.3
2019-05-30T04:30:14.369Z,1005.3
2019-05-30T04:31:14.500Z,1005.3
2019-05-30T04:32:14.509Z,1005.3
2019-05-30T04:33:26.968Z,1005.3
2019-05-30T04:34:17.222Z,1005.4
2019-05-30T04:35:16.935Z,1005.3
2019-05-30T04:36:18.904Z,1005.3
2019-05-30T04:37:19.045Z,1005.3
2019-05-30T04:38:19.521Z,1005.3
2019-05-30T04:39:19.311Z,1005.3
2019-05-30T04:40:19.959Z,1005.3
2019-05-30T04:41:21.051Z,1005.3
2019-05-30T04:42:21.338Z,1005.3
2019-05-30T04:43:22.032Z,1005.3
2019-05-30T04:44:22.750Z,1005.3
2019-05-30T04:45:27.589Z,1005.3
2019-05-30T04:46:24.117Z,1005.3
2019-05-30T04:47:24.810Z,1005.3
2019-05-30T04:48:25.510Z,1005.4
2019-05-30T04:49:26.200Z,1005.3
2019-05-30T04:50:26.891Z,1005.3
2019-05-30T04:51:27.590Z,1005.3
2019-05-30T04:52:28.293Z,1005.3
2019-05-30T04:53:28.976Z,1005.3
2019-05-30T04:54:29.684Z,1005.3
2019-05-30T04:55:30.365Z,1005.3
2019-05-30T04:56:31.067Z,1005.3
2019-05-30T04:57:31.760Z,1005.3
2019-05-30T04:58:32.455Z,1005.3
2019-05-30T04:59:33.144Z,1005.3
2019-05-30T05:00:33.839Z,1005.3
2019-05-30T05:01:34.548Z,1005.3
2019-05-30T05:02:35.246Z,1005.3
2019-05-30T05:03:45.709Z,1005.3
2019-05-30T05:04:37.648Z,1005.3
2019-05-30T05:05:38.344Z,1005.3
2019-05-30T05:06:39.037Z,1005.3
2019-05-30T05:07:39.737Z,1005.3
2019-05-30T05:08:40.429Z,1005.3
2019-05-30T05:09:41.131Z,1005.3
2019-05-30T05:10:41.824Z,1005.3
2019-05-30T05:11:42.536Z,1005.4
2019-05-30T05:12:43.215Z,1005.3
2019-05-30T05:13:43.910Z,1005.4
2019-05-30T05:14:44.612Z,1005.4
2019-05-30T05:15:45.307Z,1005.4
2019-05-30T05:16:46.017Z,1005.4
2019-05-30T05:17:46.711Z,1005.4
2019-05-30T05:18:47.408Z,1005.4
2019-05-30T05:19:48.104Z,1005.4
2019-05-30T05:20:48.802Z,1005.4
2019-05-30T05:21:49.491Z,1005.4
2019-05-30T05:22:50.184Z,1005.4
2019-05-30T05:23:50.893Z,1005.4
2019-05-30T05:24:51.625Z,1005.4
2019-05-30T05:26:00.891Z,1005.4
2019-05-30T05:26:52.986Z,1005.4
2019-05-30T05:27:53.689Z,1005.4
2019-05-30T05:28:54.391Z,1005.4
2019-05-30T05:29:55.086Z,1005.4
2019-05-30T05:30:55.785Z,1005.4
2019-05-30T05:31:56.514Z,1005.4
2019-05-30T05:32:57.180Z,1005.4
2019-05-30T05:33:57.880Z,1005.4
2019-05-30T05:34:58.571Z,1005.4
2019-05-30T05:35:59.294Z,1005.4
2019-05-30T05:36:59.999Z,1005.4
2019-05-30T05:38:00.689Z,1005.4
2019-05-30T05:39:01.391Z,1005.4
2019-05-30T05:40:02.083Z,1005.4
2019-05-30T05:41:02.773Z,1005.4
2019-05-30T05:42:03.466Z,1005.4
2019-05-30T05:43:04.169Z,1005.4
2019-05-30T05:44:04.921Z,1005.5
2019-05-30T05:45:05.619Z,1005.5
2019-05-30T05:46:06.317Z,1005.5
2019-05-30T05:47:07.027Z,1005.5
2019-05-30T05:48:07.709Z,1005.4
2019-05-30T05:49:08.400Z,1005.5
2019-05-30T05:50:09.104Z,1005.5
2019-05-30T05:51:09.791Z,1005.4
2019-05-30T05:52:12.133Z,1005.5
2019-05-30T05:53:11.193Z,1005.5
2019-05-30T05:54:11.886Z,1005.5
2019-05-30T05:55:12.583Z,1005.5
2019-05-30T05:56:13.277Z,1005.4
2019-05-30T05:57:13.978Z,1005.5
2019-05-30T05:58:14.671Z,1005.5
2019-05-30T05:59:15.364Z,1005.5
2019-05-30T06:00:16.900Z,1005.5
2019-05-30T06:01:17.287Z,1005.5
2019-05-30T06:02:17.708Z,1005.5
2019-05-30T06:03:18.870Z,1005.5
2019-05-30T06:04:19.102Z,1005.5
2019-05-30T06:05:20.150Z,1005.5
2019-05-30T06:06:21.283Z,1005.5
2019-05-30T06:07:22.421Z,1005.5
2019-05-30T06:08:23.588Z,1005.6
2019-05-30T06:09:22.933Z,1005.6
2019-05-30T06:10:23.747Z,1005.5
2019-05-30T06:11:24.616Z,1005.6
2019-05-30T06:12:25.771Z,1005.6
2019-05-30T06:13:25.708Z,1005.5
2019-05-30T06:14:26.398Z,1005.6
2019-05-30T06:15:27.096Z,1005.6
2019-05-30T06:16:28.382Z,1005.6
2019-05-30T06:17:29.331Z,1005.6
2019-05-30T06:18:29.182Z,1005.6
2019-05-30T06:19:45.333Z,1005.6
2019-05-30T06:20:30.572Z,1005.6
2019-05-30T06:21:31.292Z,1005.6
2019-05-30T06:22:31.975Z,1005.6
2019-05-30T06:23:32.680Z,1005.6
2019-05-30T06:24:33.370Z,1005.7
2019-05-30T06:25:34.091Z,1005.6
2019-05-30T06:26:34.767Z,1005.6
2019-05-30T06:27:35.468Z,1005.6
2019-05-30T06:28:36.183Z,1005.6
2019-05-30T06:29:36.866Z,1005.6
2019-05-30T06:30:37.562Z,1005.6
2019-05-30T06:31:38.269Z,1005.6
2019-05-30T06:32:38.956Z,1005.6
2019-05-30T06:33:39.655Z,1005.6
2019-05-30T06:34:40.405Z,1005.6
2019-05-30T06:35:41.102Z,1005.6
2019-05-30T06:36:41.749Z,1005.6
2019-05-30T06:37:42.437Z,1005.6
2019-05-30T06:38:43.139Z,1005.6
2019-05-30T06:39:43.832Z,1005.6
2019-05-30T06:40:44.536Z,1005.5
2019-05-30T06:41:45.227Z,1005.6
2019-05-30T06:42:45.923Z,1005.6
2019-05-30T06:43:46.624Z,1005.6
2019-05-30T06:44:47.327Z,1005.6
2019-05-30T06:45:48.025Z,1005.6
2019-05-30T06:46:48.728Z,1005.6
2019-05-30T06:47:49.417Z,1005.6
2019-05-30T06:48:50.113Z,1005.6
2019-05-30T06:49:50.810Z,1005.6
2019-05-30T06:50:51.517Z,1005.7
2019-05-30T06:51:52.208Z,1005.6
2019-05-30T06:52:52.908Z,1005.6
2019-05-30T06:53:53.605Z,1005.6
2019-05-30T06:54:54.309Z,1005.6
2019-05-30T06:55:55.002Z,1005.6
2019-05-30T06:56:55.705Z,1005.6
2019-05-30T06:57:56.404Z,1005.7
2019-05-30T06:58:57.103Z,1005.6
2019-05-30T06:59:57.812Z,1005.6
2019-05-30T07:00:58.514Z,1005.6
2019-05-30T07:01:59.194Z,1005.6
2019-05-30T07:02:59.937Z,1005.6
2019-05-30T07:04:00.728Z,1005.6
2019-05-30T07:05:02.007Z,1005.6
2019-05-30T07:06:02.564Z,1005.6
2019-05-30T07:07:05.813Z,1005.6
2019-05-30T07:08:03.402Z,1005.7
2019-05-30T07:09:04.096Z,1005.6
2019-05-30T07:10:04.802Z,1005.6
2019-05-30T07:11:05.499Z,1005.7
2019-05-30T07:12:06.194Z,1005.7
2019-05-30T07:13:06.897Z,1005.7
2019-05-30T07:14:07.593Z,1005.7
2019-05-30T07:15:08.289Z,1005.8
2019-05-30T07:16:08.988Z,1005.8
2019-05-30T07:17:09.681Z,1005.7
2019-05-30T07:18:10.376Z,1005.8
2019-05-30T07:19:11.084Z,1005.8
2019-05-30T07:20:11.773Z,1005.7
2019-05-30T07:21:12.476Z,1005.8
2019-05-30T07:22:13.169Z,1005.7
2019-05-30T07:23:13.871Z,1005.7
2019-05-30T07:24:14.581Z,1005.7
2019-05-30T07:25:15.273Z,1005.7
2019-05-30T07:26:15.992Z,1005.8
2019-05-30T07:27:16.682Z,1005.8
2019-05-30T07:28:17.386Z,1005.8
2019-05-30T07:29:18.091Z,1005.8
2019-05-30T07:30:18.794Z,1005.8
2019-05-30T07:31:19.499Z,1005.8
2019-05-30T07:32:20.194Z,1005.8
2019-05-30T07:33:20.897Z,1005.8
2019-05-30T07:34:21.592Z,1005.8
2019-05-30T07:35:22.298Z,1005.8
2019-05-30T07:36:24.012Z,1005.9
2019-05-30T07:37:24.478Z,1005.9
2019-05-30T07:38:24.403Z,1005.9
2019-05-30T07:39:27.127Z,1005.9
2019-05-30T07:40:26.570Z,1005.8
2019-05-30T07:41:26.855Z,1005.9
2019-05-30T07:42:27.196Z,1005.8
2019-05-30T07:43:28.988Z,1005.8
2019-05-30T07:44:28.780Z,1005.8
2019-05-30T07:45:29.281Z,1005.9
2019-05-30T07:46:30.979Z,1005.9
2019-05-30T07:47:30.682Z,1005.9
2019-05-30T07:48:32.367Z,1005.9
2019-05-30T07:49:32.417Z,1005.9
2019-05-30T07:50:32.778Z,1006.0
2019-05-30T07:51:34.634Z,1005.9
2019-05-30T07:52:34.850Z,1005.9
2019-05-30T07:53:35.006Z,1005.9
2019-05-30T07:54:35.582Z,1005.9
2019-05-30T07:55:36.280Z,1005.9
2019-05-30T07:56:37.991Z,1005.9
2019-05-30T07:57:41.025Z,1005.9
2019-05-30T07:58:38.378Z,1005.9
2019-05-30T07:59:39.102Z,1005.9
2019-05-30T08:00:39.817Z,1005.9
2019-05-30T08:01:40.487Z,1005.9
2019-05-30T08:02:41.187Z,1005.9
2019-05-30T08:03:41.892Z,1006.0
2019-05-30T08:04:42.587Z,1006.0
2019-05-30T08:05:43.283Z,1006.0
2019-05-30T08:06:43.983Z,1006.0
2019-05-30T08:07:44.685Z,1006.0
2019-05-30T08:08:45.381Z,1006.1
2019-05-30T08:09:46.154Z,1006.0
2019-05-30T08:10:46.821Z,1006.0
2019-05-30T08:11:47.525Z,1006.0
2019-05-30T08:12:48.232Z,1006.0
2019-05-30T08:13:48.920Z,1006.0
2019-05-30T08:14:49.618Z,1006.0
2019-05-30T08:15:50.320Z,1006.1
2019-05-30T08:16:51.017Z,1006.1
2019-05-30T08:17:51.727Z,1006.1
2019-05-30T08:18:52.408Z,1006.1
2019-05-30T08:19:53.111Z,1006.1
2019-05-30T08:20:53.797Z,1006.1
2019-05-30T08:21:54.502Z,1006.1
2019-05-30T08:22:55.221Z,1006.1
2019-05-30T08:23:55.894Z,1006.1
2019-05-30T08:24:56.596Z,1006.1
2019-05-30T08:25:57.296Z,1006.1
2019-05-30T08:26:57.992Z,1006.0
2019-05-30T08:27:58.696Z,1006.2
2019-05-30T08:28:59.393Z,1006.1
2019-05-30T08:30:00.083Z,1006.2
2019-05-30T08:31:00.787Z,1006.1
2019-05-30T08:32:01.508Z,1006.1
2019-05-30T08:33:02.182Z,1006.1
2019-05-30T08:34:02.883Z,1006.1
2019-05-30T08:35:03.599Z,1006.1
2019-05-30T08:36:05.639Z,1006.1
2019-05-30T08:37:04.980Z,1006.1
2019-05-30T08:38:05.673Z,1006.2
2019-05-30T08:39:06.377Z,1006.2
2019-05-30T08:40:07.082Z,1006.1
2019-05-30T08:41:07.776Z,1006.1
2019-05-30T08:42:08.474Z,1006.2
2019-05-30T08:43:09.176Z,1006.1
2019-05-30T08:44:09.868Z,1006.1
2019-05-30T08:45:10.629Z,1006.1
2019-05-30T08:46:11.417Z,1006.0
2019-05-30T08:47:12.122Z,1006.1
2019-05-30T08:48:12.861Z,1006.0
2019-05-30T08:49:13.566Z,1006.1
2019-05-30T08:50:14.253Z,1006.2
2019-05-30T08:51:14.950Z,1006.1
2019-05-30T08:52:15.656Z,1006.1
2019-05-30T08:53:16.361Z,1006.1
2019-05-30T08:54:17.054Z,1006.1
2019-05-30T08:55:17.753Z,1006.0
2019-05-30T08:56:18.453Z,1006.1
2019-05-30T08:57:19.161Z,1006.2
2019-05-30T08:58:19.861Z,1006.1
2019-05-30T08:59:20.558Z,1006.1
2019-05-30T09:00:21.258Z,1006.1
2019-05-30T09:01:21.958Z,1006.1
2019-05-30T09:02:22.652Z,1006.1
2019-05-30T09:03:23.350Z,1006.1
2019-05-30T09:04:24.051Z,1006.1
2019-05-30T09:05:24.745Z,1006.1
2019-05-30T09:06:25.454Z,1006.1
2019-05-30T09:07:26.150Z,1006.1
2019-05-30T09:08:26.846Z,1006.1
2019-05-30T09:09:27.548Z,1006.1
2019-05-30T09:10:28.242Z,1006.1
2019-05-30T09:11:28.944Z,1006.1
2019-05-30T09:12:29.643Z,1006.1
2019-05-30T09:13:30.385Z,1006.1
2019-05-30T09:14:31.039Z,1006.1
2019-05-30T09:15:31.740Z,1006.2
2019-05-30T09:16:32.433Z,1006.1
2019-05-30T09:17:33.136Z,1006.1
2019-05-30T09:18:33.837Z,1006.1
2019-05-30T09:19:34.527Z,1006.0
2019-05-30T09:20:35.228Z,1006.0
2019-05-30T09:21:36.823Z,1006.0
2019-05-30T09:22:37.980Z,1006.0
2019-05-30T09:23:38.544Z,1006.0
2019-05-30T09:24:39.297Z,1006.0
2019-05-30T09:25:39.955Z,1006.0
2019-05-30T09:26:44.204Z,1006.1
2019-05-30T09:27:40.871Z,1006.0
2019-05-30T09:28:42.107Z,1006.0
2019-05-30T09:29:42.704Z,1006.1
2019-05-30T09:30:43.199Z,1006.0
2019-05-30T09:31:42.901Z,1006.0
2019-05-30T09:32:45.099Z,1005.9
2019-05-30T09:33:44.690Z,1005.9
2019-05-30T09:34:45.004Z,1005.9
2019-05-30T09:35:46.943Z,1006.0
2019-05-30T09:36:47.359Z,1005.9
2019-05-30T09:37:49.360Z,1005.9
2019-05-30T09:38:49.753Z,1005.9
2019-05-30T09:39:49.472Z,1005.8
2019-05-30T09:40:50.143Z,1005.9
2019-05-30T09:41:50.867Z,1005.8
2019-05-30T09:42:51.559Z,1005.9
2019-05-30T09:43:52.247Z,1005.8
2019-05-30T09:44:52.949Z,1005.9
2019-05-30T09:45:53.646Z,1006.0
2019-05-30T09:46:54.342Z,1005.9
2019-05-30T09:47:55.040Z,1005.9
2019-05-30T09:48:55.742Z,1006.0
2019-05-30T09:49:56.449Z,1005.8
2019-05-30T09:50:57.156Z,1006.0
2019-05-30T09:51:58.053Z,1005.9
2019-05-30T09:52:58.759Z,1005.9
2019-05-30T09:53:59.469Z,1005.9
2019-05-30T09:55:00.162Z,1005.9
2019-05-30T09:56:00.854Z,1005.9
2019-05-30T09:57:01.560Z,1005.9
2019-05-30T09:58:02.258Z,1005.8
2019-05-30T09:59:02.960Z,1005.8
2019-05-30T10:00:03.668Z,1005.9
2019-05-30T10:01:04.357Z,1005.9
2019-05-30T10:02:05.060Z,1005.9
2019-05-30T10:03:05.758Z,1005.9
2019-05-30T10:04:06.464Z,1005.9
2019-05-30T10:05:07.176Z,1005.9
2019-05-30T10:06:07.877Z,1005.9
2019-05-30T10:07:08.583Z,1005.9
2019-05-30T10:08:09.285Z,1006.0
2019-05-30T10:09:09.989Z,1006.0
2019-05-30T10:10:10.701Z,1006.0
2019-05-30T10:11:11.387Z,1006.0
2019-05-30T10:12:12.087Z,1006.0
2019-05-30T10:13:12.795Z,1006.1
2019-05-30T10:14:13.491Z,1006.1
2019-05-30T10:15:14.197Z,1006.1
2019-05-30T10:16:14.897Z,1006.0
2019-05-30T10:17:15.604Z,1006.1
2019-05-30T10:18:16.298Z,1006.0
2019-05-30T10:19:17.004Z,1006.0
2019-05-30T10:20:17.700Z,1006.0
2019-05-30T10:21:18.406Z,1006.0
2019-05-30T10:22:19.110Z,1006.0
2019-05-30T10:23:19.821Z,1006.0
2019-05-30T10:24:20.520Z,1006.0
2019-05-30T10:25:21.235Z,1006.1
2019-05-30T10:26:21.933Z,1006.1
2019-05-30T10:27:22.638Z,1006.1
2019-05-30T10:28:23.346Z,1006.1
2019-05-30T10:29:24.039Z,1006.1
2019-05-30T10:30:24.757Z,1006.1
2019-05-30T10:31:25.447Z,1006.1
2019-05-30T10:32:26.147Z,1006.1
2019-05-30T10:33:26.864Z,1006.1
2019-05-30T10:34:27.559Z,1006.1
2019-05-30T10:35:30.050Z,1006.2
2019-05-30T10:36:43.118Z,1006.2
2019-05-30T10:37:29.659Z,1006.2
2019-05-30T10:38:30.356Z,1006.1
2019-05-30T10:39:31.057Z,1006.1
2019-05-30T10:40:32.268Z,1006.1
2019-05-30T10:41:32.454Z,1006.1
2019-05-30T10:42:33.162Z,1006.1
2019-05-30T10:43:33.868Z,1006.1
2019-05-30T10:44:34.568Z,1006.0
2019-05-30T10:45:38.497Z,1006.1
2019-05-30T10:46:36.037Z,1006.0
2019-05-30T10:47:36.684Z,1006.0
2019-05-30T10:48:37.374Z,1006.0
2019-05-30T10:49:38.073Z,1006.1
2019-05-30T10:50:38.773Z,1006.1
2019-05-30T10:51:39.472Z,1006.1
2019-05-30T10:52:40.175Z,1006.1
2019-05-30T10:53:40.878Z,1006.1
2019-05-30T10:54:41.578Z,1006.0
2019-05-30T10:55:42.280Z,1006.0
2019-05-30T10:56:42.997Z,1005.9
2019-05-30T10:57:43.685Z,1005.9
2019-05-30T10:58:46.514Z,1006.0
2019-05-30T10:59:46.142Z,1006.1
2019-05-30T11:00:47.260Z,1006.1
2019-05-30T11:01:47.083Z,1006.1
2019-05-30T11:02:47.958Z,1006.1
2019-05-30T11:03:48.760Z,1006.2
2019-05-30T11:04:48.926Z,1006.1
2019-05-30T11:05:50.591Z,1006.1
2019-05-30T11:07:04.483Z,1006.1
2019-05-30T11:08:00.330Z,1006.1
2019-05-30T11:08:52.754Z,1006.2
2019-05-30T11:09:52.792Z,1006.1
2019-05-30T11:10:52.903Z,1006.1
2019-05-30T11:11:54.917Z,1006.1
2019-05-30T11:13:03.069Z,1006.1
2019-05-30T11:13:55.396Z,1006.1
2019-05-30T11:14:55.695Z,1006.2
2019-05-30T11:15:57.423Z,1006.2
2019-05-30T11:16:57.804Z,1006.2
2019-05-30T11:17:57.798Z,1006.2
2019-05-30T11:18:58.498Z,1006.2
2019-05-30T11:19:59.214Z,1006.2
2019-05-30T11:20:59.896Z,1006.2
2019-05-30T11:22:00.606Z,1006.2
2019-05-30T11:23:01.307Z,1006.3
2019-05-30T11:24:02.004Z,1006.2
2019-05-30T11:25:02.701Z,1006.2
2019-05-30T11:26:03.407Z,1006.2
2019-05-30T11:27:04.106Z,1006.2
2019-05-30T11:28:04.918Z,1006.1
2019-05-30T11:29:05.613Z,1006.2
2019-05-30T11:30:06.318Z,1006.1
2019-05-30T11:31:07.024Z,1006.2
2019-05-30T11:32:07.719Z,1006.2
2019-05-30T11:33:08.429Z,1006.2
2019-05-30T11:34:09.119Z,1006.2
2019-05-30T11:35:09.824Z,1006.3
2019-05-30T11:36:10.523Z,1006.2
2019-05-30T11:37:18.516Z,1006.3
2019-05-30T11:38:11.949Z,1006.3
2019-05-30T11:39:12.653Z,1006.3
2019-05-30T11:40:13.352Z,1006.3
2019-05-30T11:41:14.061Z,1006.3
2019-05-30T11:42:14.761Z,1006.3
2019-05-30T11:43:15.464Z,1006.3
2019-05-30T11:44:16.167Z,1006.3
2019-05-30T11:45:16.869Z,1006.3
2019-05-30T11:46:17.562Z,1006.3
2019-05-30T11:47:18.262Z,1006.4
2019-05-30T11:48:18.979Z,1006.3
2019-05-30T11:49:19.662Z,1006.3
2019-05-30T11:50:20.365Z,1006.3
2019-05-30T11:51:21.068Z,1006.2
2019-05-30T11:52:21.771Z,1006.3
2019-05-30T11:53:22.465Z,1006.3
2019-05-30T11:54:23.174Z,1006.3
2019-05-30T11:55:23.867Z,1006.3
2019-05-30T11:56:24.567Z,1006.3
2019-05-30T11:57:25.265Z,1006.4
2019-05-30T11:58:25.969Z,1006.4
2019-05-30T11:59:26.669Z,1006.4
2019-05-30T12:00:27.375Z,1006.4
2019-05-30T12:01:28.075Z,1006.4
2019-05-30T12:02:28.761Z,1006.4
2019-05-30T12:03:29.819Z,1006.4
2019-05-30T12:04:30.165Z,1006.4
2019-05-30T12:05:30.861Z,1006.4
2019-05-30T12:06:31.563Z,1006.4
2019-05-30T12:07:36.421Z,1006.4
2019-05-30T12:08:32.965Z,1006.4
2019-05-30T12:09:33.665Z,1006.5
2019-05-30T12:10:34.360Z,1006.4
2019-05-30T12:11:35.066Z,1006.4
2019-05-30T12:12:35.758Z,1006.4
2019-05-30T12:13:36.465Z,1006.5
2019-05-30T12:14:37.159Z,1006.4
2019-05-30T12:15:37.864Z,1006.4
2019-05-30T12:16:38.562Z,1006.5
2019-05-30T12:17:39.260Z,1006.5
2019-05-30T12:18:39.961Z,1006.5
2019-05-30T12:19:40.664Z,1006.5
2019-05-30T12:20:41.364Z,1006.5
2019-05-30T12:21:42.067Z,1006.5
2019-05-30T12:22:42.763Z,1006.5
2019-05-30T12:23:43.467Z,1006.5
2019-05-30T12:24:44.162Z,1006.5
2019-05-30T12:25:44.867Z,1006.5
2019-05-30T12:26:45.570Z,1006.5
2019-05-30T12:27:46.268Z,1006.5
2019-05-30T12:28:46.969Z,1006.5
2019-05-30T12:29:47.679Z,1006.5
2019-05-30T12:30:57.715Z,1006.5
2019-05-30T12:31:49.074Z,1006.5
2019-05-30T12:32:49.765Z,1006.5
2019-05-30T12:33:50.464Z,1006.5
2019-05-30T12:34:52.266Z,1006.5
2019-05-30T12:35:52.368Z,1006.5
2019-05-30T12:36:52.558Z,1006.5